createdAt,value
2019-03-29T00:02:22.930Z,26.50
2019-03-29T00:04:51.367Z,23.33
2019-03-29T00:07:19.858Z,26.23
2019-03-29T00:09:48.317Z,25.53
2019-03-29T00:12:16.758Z,27.97
2019-03-29T00:14:45.214Z,26.60
2019-03-29T00:17:13.700Z,24.03
2019-03-29T00:19:42.145Z,27.10
2019-03-29T00:22:10.601Z,28.53
2019-03-29T00:24:39.059Z,37.23
2019-03-29T00:27:07.507Z,30.27
2019-03-29T00:29:35.977Z,29.80
2019-03-29T00:32:05.329Z,30.10
2019-03-29T00:34:34.492Z,38.10
2019-03-29T00:37:02.939Z,28.80
2019-03-29T00:39:31.376Z,28.20
2019-03-29T00:41:59.821Z,28.17
2019-03-29T00:44:28.276Z,31.80
2019-03-29T00:46:56.720Z,32.27
2019-03-29T00:49:25.218Z,27.97
2019-03-29T00:51:53.678Z,30.13
2019-03-29T00:54:22.123Z,30.03
2019-03-29T00:56:50.583Z,30.70
2019-03-29T00:59:19.023Z,33.10
2019-03-29T01:01:47.489Z,29.87
2019-03-29T01:04:15.933Z,29.80
2019-03-29T01:06:44.389Z,37.50
2019-03-29T01:09:12.830Z,33.23
2019-03-29T01:11:41.298Z,33.73
2019-03-29T01:14:09.738Z,32.90
2019-03-29T01:16:38.198Z,30.60
2019-03-29T01:19:06.656Z,31.47
2019-03-29T01:21:35.115Z,30.97
2019-03-29T01:24:03.591Z,34.50
2019-03-29T01:26:32.025Z,33.37
2019-03-29T01:29:00.472Z,33.27
2019-03-29T01:31:28.932Z,30.77
2019-03-29T01:33:57.403Z,31.57
2019-03-29T01:36:25.845Z,26.83
2019-03-29T01:38:54.285Z,29.17
2019-03-29T01:41:22.800Z,30.00
2019-03-29T01:43:51.249Z,31.83
2019-03-29T01:46:19.693Z,30.83
2019-03-29T01:48:48.286Z,30.20
2019-03-29T01:51:17.505Z,28.30
2019-03-29T01:53:45.951Z,38.20
2019-03-29T01:56:14.956Z,33.43
2019-03-29T01:58:43.350Z,35.93
2019-03-29T02:01:11.791Z,33.67
2019-03-29T02:03:40.252Z,32.87
2019-03-29T02:06:08.688Z,32.63
2019-03-29T02:08:37.899Z,34.03
2019-03-29T02:11:06.690Z,35.30
2019-03-29T02:13:35.275Z,29.30
2019-03-29T02:16:03.952Z,28.17
2019-03-29T02:18:32.666Z,27.33
2019-03-29T02:21:01.116Z,27.67
2019-03-29T02:23:30.223Z,26.33
2019-03-29T02:25:59.302Z,31.03
2019-03-29T02:28:27.742Z,23.40
2019-03-29T02:30:56.216Z,25.10
2019-03-29T02:33:24.764Z,28.27
2019-03-29T02:35:53.211Z,29.00
2019-03-29T02:38:23.611Z,28.73
2019-03-29T02:40:51.851Z,27.07
2019-03-29T02:43:20.289Z,27.90
2019-03-29T02:45:48.771Z,29.97
2019-03-29T02:48:17.461Z,28.83
2019-03-29T02:50:45.970Z,32.43
2019-03-29T02:53:14.420Z,28.20
2019-03-29T02:55:42.909Z,29.33
2019-03-29T02:58:11.368Z,30.13
2019-03-29T03:00:39.849Z,30.27
2019-03-29T03:03:08.337Z,33.50
2019-03-29T03:05:36.753Z,30.50
2019-03-29T03:08:05.197Z,33.80
2019-03-29T03:10:33.697Z,32.37
2019-03-29T03:13:02.124Z,33.60
2019-03-29T03:15:30.584Z,38.00
2019-03-29T03:17:59.055Z,30.83
2019-03-29T03:20:27.517Z,34.67
2019-03-29T03:22:56.017Z,33.87
2019-03-29T03:25:24.509Z,36.43
2019-03-29T03:27:52.997Z,36.80
2019-03-29T03:30:21.714Z,36.63
2019-03-29T03:32:50.182Z,35.37
2019-03-29T03:35:18.705Z,39.53
2019-03-29T03:37:47.156Z,39.53
2019-03-29T03:40:15.952Z,39.40
2019-03-29T03:42:44.427Z,43.77
2019-03-29T03:45:13.351Z,37.70
2019-03-29T03:47:41.829Z,42.33
2019-03-29T03:50:13.322Z,42.40
2019-03-29T03:52:41.951Z,49.63
2019-03-29T03:55:10.411Z,43.67
2019-03-29T03:57:39.159Z,43.77
2019-03-29T04:00:08.986Z,43.70
2019-03-29T04:02:37.414Z,44.07
2019-03-29T04:05:07.249Z,43.53
2019-03-29T04:07:35.667Z,43.60
2019-03-29T04:10:06.615Z,42.03
2019-03-29T04:12:35.078Z,43.87
2019-03-29T04:15:03.913Z,44.63
2019-03-29T04:17:32.390Z,44.87
2019-03-29T04:20:00.892Z,45.73
2019-03-29T04:22:29.375Z,49.40
2019-03-29T04:24:57.804Z,47.83
2019-03-29T04:27:26.279Z,48.40
2019-03-29T04:29:54.733Z,54.23
2019-03-29T04:32:23.170Z,45.93
2019-03-29T04:34:51.629Z,48.97
2019-03-29T04:37:20.096Z,50.17
2019-03-29T04:40:05.763Z,45.30
2019-03-29T04:42:18.745Z,48.23
2019-03-29T04:44:47.178Z,46.60
2019-03-29T04:47:15.665Z,48.40
2019-03-29T04:49:44.124Z,47.77
2019-03-29T04:52:12.674Z,45.00
2019-03-29T04:54:41.129Z,47.47
2019-03-29T04:57:09.599Z,43.27
2019-03-29T04:59:38.093Z,46.77
2019-03-29T05:02:06.545Z,48.90
2019-03-29T05:04:35.023Z,46.97
2019-03-29T05:07:03.484Z,51.43
2019-03-29T05:09:31.947Z,47.10
2019-03-29T05:12:00.783Z,49.70
2019-03-29T05:14:29.882Z,47.83
2019-03-29T05:16:58.341Z,47.40
2019-03-29T05:19:26.789Z,59.77
2019-03-29T05:21:55.268Z,43.73
2019-03-29T05:24:23.765Z,45.13
2019-03-29T05:26:52.237Z,48.87
2019-03-29T05:29:20.713Z,50.10
2019-03-29T05:31:49.189Z,48.27
2019-03-29T05:34:17.644Z,50.30
2019-03-29T05:36:46.118Z,50.63
2019-03-29T05:39:14.587Z,45.73
2019-03-29T05:41:43.037Z,52.40
2019-03-29T05:44:11.490Z,57.93
2019-03-29T05:46:39.954Z,48.33
2019-03-29T05:49:08.411Z,50.67
2019-03-29T05:51:36.885Z,50.97
2019-03-29T05:54:05.325Z,42.10
2019-03-29T05:56:33.781Z,48.13
2019-03-29T05:59:02.270Z,48.80
2019-03-29T06:01:30.736Z,51.50
2019-03-29T06:03:59.198Z,43.00
2019-03-29T06:06:27.665Z,53.07
2019-03-29T06:08:56.100Z,51.17
2019-03-29T06:11:25.681Z,41.10
2019-03-29T06:13:54.171Z,45.53
2019-03-29T06:16:22.617Z,46.30
2019-03-29T06:18:52.231Z,48.33
2019-03-29T06:21:20.695Z,45.03
2019-03-29T06:23:49.151Z,44.17
2019-03-29T06:26:17.615Z,46.57
2019-03-29T06:28:46.105Z,43.87
2019-03-29T06:31:14.612Z,46.20
2019-03-29T06:33:44.537Z,56.73
2019-03-29T06:36:15.838Z,45.63
2019-03-29T06:38:46.147Z,43.17
2019-03-29T06:41:14.621Z,49.30
2019-03-29T06:43:43.101Z,46.10
2019-03-29T06:46:11.546Z,48.87
2019-03-29T06:48:40.022Z,48.63
2019-03-29T06:51:08.478Z,50.90
2019-03-29T06:53:36.920Z,49.83
2019-03-29T06:56:05.373Z,49.77
2019-03-29T06:58:33.864Z,49.13
2019-03-29T07:01:02.313Z,50.20
2019-03-29T07:03:30.785Z,50.07
2019-03-29T07:05:59.243Z,48.40
2019-03-29T07:08:27.708Z,46.67
2019-03-29T07:10:56.188Z,47.07
2019-03-29T07:13:24.624Z,48.10
2019-03-29T07:15:53.106Z,47.97
2019-03-29T07:18:21.604Z,47.13
2019-03-29T07:20:50.086Z,50.83
2019-03-29T07:23:18.524Z,45.63
2019-03-29T07:25:46.969Z,47.60
2019-03-29T07:28:15.451Z,49.43
2019-03-29T07:30:43.893Z,51.57
2019-03-29T07:33:12.364Z,48.07
2019-03-29T07:35:40.931Z,54.00
2019-03-29T07:38:09.369Z,51.20
2019-03-29T07:40:37.843Z,47.43
2019-03-29T07:43:06.341Z,46.00
2019-03-29T07:45:34.870Z,58.40
2019-03-29T07:48:03.369Z,55.00
2019-03-29T07:50:31.830Z,47.33
2019-03-29T07:53:00.286Z,51.40
2019-03-29T07:55:28.761Z,62.67
2019-03-29T07:57:57.239Z,58.37
2019-03-29T08:00:25.698Z,53.33
2019-03-29T08:02:55.127Z,50.10
2019-03-29T08:05:23.802Z,45.73
2019-03-29T08:07:52.260Z,43.70
2019-03-29T08:10:27.494Z,40.83
2019-03-29T08:12:50.960Z,42.03
2019-03-29T08:15:19.457Z,41.90
2019-03-29T08:17:47.913Z,47.00
2019-03-29T08:20:38.846Z,41.40
2019-03-29T08:22:46.588Z,44.20
2019-03-29T08:25:15.068Z,46.63
2019-03-29T08:27:43.523Z,38.20
2019-03-29T08:30:12.363Z,38.67
2019-03-29T08:32:40.832Z,37.30
2019-03-29T08:35:09.542Z,36.77
2019-03-29T08:37:38.051Z,36.50
2019-03-29T08:40:06.881Z,55.00
2019-03-29T08:42:35.334Z,49.53
2019-03-29T08:45:05.220Z,42.47
2019-03-29T08:47:33.700Z,32.00
2019-03-29T08:50:02.206Z,30.93
2019-03-29T08:52:30.660Z,32.10
2019-03-29T08:54:59.094Z,31.73
2019-03-29T08:57:27.634Z,36.43
2019-03-29T08:59:57.023Z,36.37
2019-03-29T09:02:25.663Z,41.13
2019-03-29T09:04:55.172Z,35.80
2019-03-29T09:07:23.793Z,35.60
2019-03-29T09:09:52.254Z,87.63
2019-03-29T09:12:20.721Z,46.13
2019-03-29T09:14:49.202Z,165.87
2019-03-29T09:17:17.666Z,31.17
2019-03-29T09:19:46.163Z,33.70
2019-03-29T09:22:14.677Z,61.57
2019-03-29T09:24:43.087Z,34.23
2019-03-29T09:27:11.603Z,31.90
2019-03-29T09:29:40.123Z,32.07
2019-03-29T09:32:09.110Z,32.30
2019-03-29T09:34:37.680Z,28.30
2019-03-29T09:37:06.180Z,28.63
2019-03-29T09:39:34.616Z,30.87
2019-03-29T09:42:03.267Z,27.40
2019-03-29T09:44:31.713Z,29.03
2019-03-29T09:47:00.168Z,27.17
2019-03-29T09:49:28.621Z,30.80
2019-03-29T09:51:57.065Z,25.73
2019-03-29T09:54:25.529Z,27.43
2019-03-29T09:56:53.990Z,26.53
2019-03-29T09:59:23.275Z,30.87
2019-03-29T10:01:53.961Z,28.27
2019-03-29T10:04:22.070Z,20.00
2019-03-29T10:06:50.577Z,23.90
2019-03-29T10:09:19.044Z,26.57
2019-03-29T10:11:47.483Z,25.90
2019-03-29T10:14:15.951Z,23.03
2019-03-29T10:16:44.422Z,26.37
2019-03-29T10:19:12.904Z,31.13
2019-03-29T10:21:41.370Z,17.90
2019-03-29T10:24:09.820Z,20.73
2019-03-29T10:26:38.302Z,25.30
2019-03-29T10:29:06.797Z,19.87
2019-03-29T10:31:35.228Z,22.47
2019-03-29T10:34:03.689Z,16.97
2019-03-29T10:36:32.174Z,16.47
2019-03-29T10:39:00.635Z,17.53
2019-03-29T10:41:29.112Z,17.80
2019-03-29T10:43:57.616Z,14.27
2019-03-29T10:46:26.134Z,14.60
2019-03-29T10:48:54.665Z,15.23
2019-03-29T10:51:23.142Z,13.73
2019-03-29T10:53:51.605Z,17.57
2019-03-29T10:56:33.464Z,13.37
2019-03-29T10:58:50.279Z,15.53
2019-03-29T11:01:18.722Z,15.97
2019-03-29T11:03:47.209Z,12.60
2019-03-29T11:06:15.747Z,10.60
2019-03-29T11:08:44.193Z,7.07
2019-03-29T11:11:12.652Z,10.17
2019-03-29T11:13:41.436Z,11.17
2019-03-29T11:16:09.883Z,7.17
2019-03-29T11:18:38.386Z,4.87
2019-03-29T11:21:07.087Z,5.50
2019-03-29T11:23:35.529Z,5.97
2019-03-29T11:26:03.966Z,2.93
2019-03-29T11:28:32.429Z,6.30
2019-03-29T11:31:00.864Z,7.40
2019-03-29T11:33:29.347Z,8.83
2019-03-29T11:35:57.770Z,4.50
2019-03-29T11:38:26.218Z,3.63
2019-03-29T11:40:54.683Z,6.23
2019-03-29T11:43:27.043Z,3.90
2019-03-29T11:45:53.309Z,3.60
2019-03-29T11:48:21.768Z,6.93
2019-03-29T11:50:50.222Z,4.00
2019-03-29T11:53:18.733Z,8.00
2019-03-29T11:55:47.207Z,5.27
2019-03-29T11:58:15.655Z,9.07
2019-03-29T12:00:44.391Z,6.30
2019-03-29T12:03:12.925Z,8.00
2019-03-29T12:05:41.362Z,8.37
2019-03-29T12:08:09.831Z,8.03
2019-03-29T12:10:38.313Z,4.97
2019-03-29T12:13:08.217Z,7.07
2019-03-29T12:15:36.827Z,5.90
2019-03-29T12:18:05.339Z,7.97
2019-03-29T12:20:33.809Z,5.47
2019-03-29T12:23:02.314Z,6.03
2019-03-29T12:25:30.808Z,4.93
2019-03-29T12:27:59.234Z,10.77
2019-03-29T12:30:31.904Z,5.97
2019-03-29T12:32:57.884Z,6.10
2019-03-29T12:35:26.367Z,6.40
2019-03-29T12:37:54.820Z,6.93
2019-03-29T12:40:23.252Z,5.40
2019-03-29T12:42:51.706Z,5.13
2019-03-29T12:45:20.183Z,9.73
2019-03-29T12:47:49.358Z,6.83
2019-03-29T12:50:17.834Z,8.80
2019-03-29T12:52:46.264Z,6.43
2019-03-29T12:55:15.140Z,8.40
2019-03-29T12:57:43.613Z,6.77
2019-03-29T13:00:13.043Z,7.37
2019-03-29T13:02:41.478Z,8.50
2019-03-29T13:05:10.132Z,7.53
2019-03-29T13:07:38.567Z,7.10
2019-03-29T13:10:08.650Z,5.93
2019-03-29T13:12:37.119Z,7.67
2019-03-29T13:15:08.909Z,7.07
2019-03-29T13:17:38.010Z,9.57
2019-03-29T13:20:06.960Z,7.57
2019-03-29T13:22:35.426Z,6.53
2019-03-29T13:25:07.311Z,9.73
2019-03-29T13:27:35.073Z,7.03
2019-03-29T13:30:04.309Z,8.53
2019-03-29T13:32:33.509Z,9.07
2019-03-29T13:35:02.201Z,11.20
2019-03-29T13:37:30.660Z,9.63
2019-03-29T13:39:59.116Z,10.07
2019-03-29T13:42:27.574Z,10.10
2019-03-29T13:44:56.090Z,8.50
2019-03-29T13:47:24.512Z,7.50
2019-03-29T13:49:52.983Z,8.03
2019-03-29T13:52:21.459Z,10.17
2019-03-29T13:54:49.929Z,9.23
2019-03-29T13:57:18.406Z,8.33
2019-03-29T13:59:46.875Z,11.73
2019-03-29T14:02:15.308Z,6.50
2019-03-29T14:04:43.748Z,11.20
2019-03-29T14:07:12.199Z,13.33
2019-03-29T14:09:40.703Z,11.50
2019-03-29T14:12:09.132Z,11.23
2019-03-29T14:14:38.827Z,10.43
2019-03-29T14:17:07.444Z,13.50
2019-03-29T14:19:35.918Z,15.97
2019-03-29T14:22:04.360Z,12.57
2019-03-29T14:24:32.826Z,9.53
2019-03-29T14:27:01.291Z,24.90
2019-03-29T14:29:29.743Z,17.83
2019-03-29T14:31:58.215Z,23.77
2019-03-29T14:34:26.657Z,14.60
2019-03-29T14:36:55.123Z,18.73
2019-03-29T14:39:23.568Z,8.90
2019-03-29T14:41:52.005Z,14.03
2019-03-29T14:44:20.477Z,10.93
2019-03-29T14:46:48.914Z,14.73
2019-03-29T14:49:17.413Z,11.97
2019-03-29T14:51:45.871Z,19.03
2019-03-29T14:54:14.317Z,11.80
2019-03-29T14:56:42.791Z,11.67
2019-03-29T14:59:11.250Z,10.20
2019-03-29T15:01:39.693Z,13.03
2019-03-29T15:04:08.292Z,11.83
2019-03-29T15:06:36.757Z,11.77
2019-03-29T15:09:07.041Z,11.83
2019-03-29T15:11:35.545Z,12.10
2019-03-29T15:14:04.008Z,10.20
2019-03-29T15:16:32.457Z,11.10
2019-03-29T15:19:00.921Z,15.03
2019-03-29T15:21:29.368Z,10.37
2019-03-29T15:23:57.820Z,12.23
2019-03-29T15:26:26.279Z,16.13
2019-03-29T15:28:54.760Z,13.07
2019-03-29T15:31:23.249Z,13.57
2019-03-29T15:33:51.739Z,13.57
2019-03-29T15:36:20.201Z,10.87
2019-03-29T15:38:48.661Z,12.93
2019-03-29T15:41:17.154Z,8.97
2019-03-29T15:43:45.635Z,8.90
2019-03-29T15:46:14.117Z,10.23
2019-03-29T15:48:42.582Z,14.97
2019-03-29T15:51:11.113Z,12.33
2019-03-29T15:53:39.563Z,9.27
2019-03-29T15:56:08.019Z,9.97
2019-03-29T15:58:36.497Z,16.90
2019-03-29T16:01:05.019Z,10.63
2019-03-29T16:03:33.475Z,11.83
2019-03-29T16:06:01.943Z,12.03
2019-03-29T16:08:30.398Z,9.13
2019-03-29T16:10:58.858Z,8.53
2019-03-29T16:13:27.330Z,10.63
2019-03-29T16:15:55.785Z,8.30
2019-03-29T16:18:24.218Z,10.33
2019-03-29T16:20:52.719Z,12.47
2019-03-29T16:23:21.174Z,11.03
2019-03-29T16:25:49.662Z,9.33
2019-03-29T16:28:18.111Z,8.13
2019-03-29T16:30:46.592Z,9.87
2019-03-29T16:33:15.096Z,11.97
2019-03-29T16:35:43.555Z,8.03
2019-03-29T16:38:12.033Z,8.47
2019-03-29T16:40:40.517Z,12.57
2019-03-29T16:43:08.987Z,10.17
2019-03-29T16:45:47.278Z,10.80
2019-03-29T16:48:07.606Z,14.63
2019-03-29T16:50:36.096Z,8.93
2019-03-29T16:53:04.594Z,10.50
2019-03-29T16:55:33.115Z,9.70
2019-03-29T16:58:01.591Z,12.80
2019-03-29T17:00:30.042Z,19.70
2019-03-29T17:02:58.533Z,15.17
2019-03-29T17:05:27.000Z,12.23
2019-03-29T17:07:55.560Z,14.57
2019-03-29T17:10:24.005Z,10.87
2019-03-29T17:12:52.519Z,12.70
2019-03-29T17:15:21.037Z,9.43
2019-03-29T17:17:49.496Z,9.67
2019-03-29T17:20:17.977Z,13.43
2019-03-29T17:22:46.468Z,11.20
2019-03-29T17:25:14.924Z,11.60
2019-03-29T17:27:43.389Z,12.13
2019-03-29T17:30:13.920Z,15.33
2019-03-29T17:32:42.394Z,14.70
2019-03-29T17:35:10.845Z,15.63
2019-03-29T17:37:39.294Z,15.13
2019-03-29T17:40:08.802Z,14.07
2019-03-29T17:42:37.246Z,15.20
2019-03-29T17:45:08.964Z,18.50
2019-03-29T17:47:37.608Z,19.47
2019-03-29T17:50:06.827Z,14.23
2019-03-29T17:52:35.309Z,13.60
2019-03-29T17:55:05.013Z,16.23
2019-03-29T17:57:33.489Z,16.03
2019-03-29T18:00:01.944Z,13.13
2019-03-29T18:02:30.391Z,14.63
2019-03-29T18:04:58.879Z,13.27
2019-03-29T18:07:27.382Z,13.93
2019-03-29T18:09:55.853Z,16.73
2019-03-29T18:12:24.314Z,18.37
2019-03-29T18:14:52.782Z,14.87
2019-03-29T18:17:21.273Z,15.53
2019-03-29T18:19:49.716Z,15.37
2019-03-29T18:22:18.204Z,12.47
2019-03-29T18:24:46.681Z,15.60
2019-03-29T18:27:15.126Z,14.43
2019-03-29T18:29:43.584Z,17.20
2019-03-29T18:32:12.218Z,16.47
2019-03-29T18:34:41.699Z,17.43
2019-03-29T18:37:10.970Z,16.23
2019-03-29T18:39:39.601Z,18.83
2019-03-29T18:42:08.061Z,15.37
2019-03-29T18:44:36.556Z,16.57
2019-03-29T18:47:05.038Z,21.40
2019-03-29T18:49:33.490Z,15.23
2019-03-29T18:52:01.962Z,15.20
2019-03-29T18:54:30.418Z,15.10
2019-03-29T18:56:58.943Z,20.37
2019-03-29T18:59:27.394Z,14.73
2019-03-29T19:01:55.860Z,14.13
2019-03-29T19:04:24.325Z,18.07
2019-03-29T19:06:52.795Z,14.03
2019-03-29T19:09:21.271Z,14.67
2019-03-29T19:11:49.719Z,15.20
2019-03-29T19:14:18.196Z,16.17
2019-03-29T19:16:58.287Z,15.60
2019-03-29T19:19:16.823Z,19.47
2019-03-29T19:21:45.321Z,17.43
2019-03-29T19:24:13.799Z,21.33
2019-03-29T19:26:42.250Z,19.17
2019-03-29T19:29:10.714Z,26.67
2019-03-29T19:31:39.189Z,17.57
2019-03-29T19:34:07.633Z,19.43
2019-03-29T19:36:36.084Z,17.60
2019-03-29T19:39:06.605Z,17.23
2019-03-29T19:41:35.043Z,17.77
2019-03-29T19:44:03.526Z,18.00
2019-03-29T19:46:32.005Z,20.20
2019-03-29T19:49:00.455Z,16.63
2019-03-29T19:51:28.908Z,19.13
2019-03-29T19:54:07.150Z,16.70
2019-03-29T19:56:27.591Z,18.33
2019-03-29T19:58:56.037Z,16.60
2019-03-29T20:01:24.475Z,15.87
2019-03-29T20:03:52.976Z,16.00
2019-03-29T20:06:21.405Z,17.53
2019-03-29T20:08:49.861Z,17.60
2019-03-29T20:11:18.336Z,20.00
2019-03-29T20:13:46.806Z,26.83
2019-03-29T20:16:15.323Z,19.47
2019-03-29T20:18:43.775Z,19.87
2019-03-29T20:21:12.247Z,14.90
2019-03-29T20:23:40.708Z,21.33
2019-03-29T20:26:09.257Z,17.53
2019-03-29T20:28:37.754Z,26.63
2019-03-29T20:31:06.202Z,16.50
2019-03-29T20:33:34.689Z,17.80
2019-03-29T20:36:03.179Z,17.87
2019-03-29T20:38:31.636Z,15.87
2019-03-29T20:41:00.113Z,15.73
2019-03-29T20:43:28.564Z,19.63
2019-03-29T20:45:57.010Z,16.50
2019-03-29T20:48:25.464Z,15.83
2019-03-29T20:50:53.914Z,13.03
2019-03-29T20:53:22.377Z,15.20
2019-03-29T20:55:50.815Z,15.00
2019-03-29T20:58:19.255Z,15.97
2019-03-29T21:00:47.749Z,14.10
2019-03-29T21:03:16.199Z,14.97
2019-03-29T21:05:44.667Z,14.60
2019-03-29T21:08:13.117Z,16.47
2019-03-29T21:10:54.972Z,27.73
2019-03-29T21:13:11.763Z,15.87
2019-03-29T21:15:40.188Z,14.17
2019-03-29T21:18:08.656Z,13.37
2019-03-29T21:20:37.150Z,14.50
2019-03-29T21:23:05.579Z,11.93
2019-03-29T21:25:34.018Z,14.33
2019-03-29T21:28:02.782Z,16.77
2019-03-29T21:30:31.241Z,15.93
2019-03-29T21:32:59.692Z,14.30
2019-03-29T21:35:28.148Z,15.90
2019-03-29T21:37:56.637Z,12.30
2019-03-29T21:40:25.075Z,14.40
2019-03-29T21:42:53.536Z,17.03
2019-03-29T21:45:28.409Z,11.50
2019-03-29T21:48:04.725Z,13.07
2019-03-29T21:50:22.373Z,12.90
2019-03-29T21:52:50.879Z,13.37
2019-03-29T21:55:19.325Z,16.13
2019-03-29T21:57:47.792Z,20.33
2019-03-29T22:00:16.996Z,15.23
2019-03-29T22:02:45.435Z,20.37
2019-03-29T22:05:14.757Z,16.30
2019-03-29T22:07:43.197Z,13.53
2019-03-29T22:10:11.912Z,11.67
2019-03-29T22:12:43.036Z,12.57
2019-03-29T22:15:11.490Z,12.50
2019-03-29T22:17:39.930Z,12.50
2019-03-29T22:20:09.435Z,14.43
2019-03-29T22:22:37.972Z,11.10
2019-03-29T22:25:08.089Z,9.63
2019-03-29T22:27:36.539Z,12.80
2019-03-29T22:30:08.301Z,11.73
2019-03-29T22:32:36.778Z,10.80
2019-03-29T22:35:07.623Z,12.37
2019-03-29T22:37:36.087Z,13.63
2019-03-29T22:40:07.071Z,12.60
2019-03-29T22:42:35.551Z,13.13
2019-03-29T22:45:05.455Z,12.67
2019-03-29T22:47:33.911Z,10.50
2019-03-29T22:50:02.407Z,13.83
2019-03-29T22:52:30.850Z,15.07
2019-03-29T22:54:59.323Z,10.20
2019-03-29T22:57:27.755Z,12.10
2019-03-29T22:59:56.204Z,12.97
2019-03-29T23:02:24.913Z,11.53
2019-03-29T23:04:53.354Z,16.10
2019-03-29T23:07:21.808Z,14.47
2019-03-29T23:09:50.264Z,12.43
2019-03-29T23:12:18.724Z,12.87
2019-03-29T23:14:47.178Z,13.40
2019-03-29T23:17:15.632Z,18.67
2019-03-29T23:19:44.084Z,16.87
2019-03-29T23:22:12.519Z,15.43
2019-03-29T23:24:40.984Z,18.57
2019-03-29T23:27:09.421Z,17.20
2019-03-29T23:29:37.933Z,15.07
2019-03-29T23:32:06.386Z,18.83
2019-03-29T23:34:34.830Z,15.90
2019-03-29T23:37:03.280Z,12.53
2019-03-29T23:39:31.750Z,14.70
2019-03-29T23:42:00.197Z,20.60
2019-03-29T23:44:28.710Z,17.70
2019-03-29T23:46:57.185Z,17.80
2019-03-29T23:49:25.627Z,25.00
2019-03-29T23:51:54.108Z,15.70
2019-03-29T23:54:22.546Z,18.97
2019-03-29T23:56:50.989Z,20.43
2019-03-29T23:59:19.465Z,15.97
